sensor_id;sensor_type;location;lat;lon;timestamp;pressure;altitude;pressure_sealevel;temperature;humidity
62592;BME280;48659;41.622;2.276;2023-05-24T00:02:09;99649.96;;;17.76;51.10
62592;BME280;48659;41.622;2.276;2023-05-24T00:04:37;99651.62;;;15.04;56.19
62592;BME280;48659;41.622;2.276;2023-05-24T00:07:05;99648.20;;;15.53;56.85
62592;BME280;48659;41.622;2.276;2023-05-24T00:09:32;99654.13;;;14.99;58.64
62592;BME280;48659;41.622;2.276;2023-05-24T00:12:05;99648.86;;;15.06;59.52
62592;BME280;48659;41.622;2.276;2023-05-24T00:14:33;99648.43;;;16.91;55.11
62592;BME280;48659;41.622;2.276;2023-05-24T00:17:09;99644.62;;;15.02;58.39
62592;BME280;48659;41.622;2.276;2023-05-24T00:19:37;99647.85;;;17.02;53.51
62592;BME280;48659;41.622;2.276;2023-05-24T00:22:04;99644.75;;;16.60;53.75
62592;BME280;48659;41.622;2.276;2023-05-24T00:24:32;99651.53;;;14.40;58.93
62592;BME280;48659;41.622;2.276;2023-05-24T00:27:00;99650.37;;;13.59;63.46
62592;BME280;48659;41.622;2.276;2023-05-24T00:29:28;99657.62;;;13.16;65.11
62592;BME280;48659;41.622;2.276;2023-05-24T00:31:56;99654.01;;;15.01;59.73
62592;BME280;48659;41.622;2.276;2023-05-24T00:34:24;99650.19;;;13.86;62.47
62592;BME280;48659;41.622;2.276;2023-05-24T00:36:51;99648.73;;;15.03;59.85
62592;BME280;48659;41.622;2.276;2023-05-24T00:39:19;99645.50;;;14.55;61.70
62592;BME280;48659;41.622;2.276;2023-05-24T00:41:46;99644.05;;;14.53;60.40
62592;BME280;48659;41.622;2.276;2023-05-24T00:44:14;99646.27;;;15.10;59.77
62592;BME280;48659;41.622;2.276;2023-05-24T00:46:41;99641.74;;;16.39;56.21
62592;BME280;48659;41.622;2.276;2023-05-24T00:49:09;99645.84;;;17.02;53.48
62592;BME280;48659;41.622;2.276;2023-05-24T00:51:37;99644.54;;;16.98;53.38
62592;BME280;48659;41.622;2.276;2023-05-24T00:54:04;99643.90;;;17.53;52.23
62592;BME280;48659;41.622;2.276;2023-05-24T00:56:32;99642.82;;;16.11;55.73
62592;BME280;48659;41.622;2.276;2023-05-24T00:59:07;99645.18;;;13.85;59.67
62592;BME280;48659;41.622;2.276;2023-05-24T01:01:35;99646.16;;;14.50;58.97
62592;BME280;48659;41.622;2.276;2023-05-24T01:04:07;99643.67;;;13.41;61.86
62592;BME280;48659;41.622;2.276;2023-05-24T01:06:40;99643.17;;;14.19;60.24
62592;BME280;48659;41.622;2.276;2023-05-24T01:09:18;99640.15;;;14.60;59.30
62592;BME280;48659;41.622;2.276;2023-05-24T01:12:10;99643.04;;;14.50;60.83
62592;BME280;48659;41.622;2.276;2023-05-24T01:14:47;99640.28;;;13.62;62.55
62592;BME280;48659;41.622;2.276;2023-05-24T01:17:21;99638.30;;;15.02;58.13
62592;BME280;48659;41.622;2.276;2023-05-24T01:19:52;99639.71;;;14.17;59.67
62592;BME280;48659;41.622;2.276;2023-05-24T01:22:36;99641.02;;;15.28;57.59
62592;BME280;48659;41.622;2.276;2023-05-24T01:25:15;99642.98;;;15.20;59.72
62592;BME280;48659;41.622;2.276;2023-05-24T01:27:43;99633.15;;;16.13;56.25
62592;BME280;48659;41.622;2.276;2023-05-24T01:30:13;99634.15;;;14.87;58.33
62592;BME280;48659;41.622;2.276;2023-05-24T01:32:41;99622.80;;;15.94;56.43
62592;BME280;48659;41.622;2.276;2023-05-24T01:35:09;99623.81;;;14.21;60.75
62592;BME280;48659;41.622;2.276;2023-05-24T01:37:36;99620.35;;;15.71;57.92
62592;BME280;48659;41.622;2.276;2023-05-24T01:40:05;99616.57;;;16.13;56.25
62592;BME280;48659;41.622;2.276;2023-05-24T01:42:40;99620.71;;;14.51;60.48
62592;BME280;48659;41.622;2.276;2023-05-24T01:45:17;99619.98;;;13.86;62.08
62592;BME280;48659;41.622;2.276;2023-05-24T01:47:57;99617.59;;;14.23;61.35
62592;BME280;48659;41.622;2.276;2023-05-24T01:50:47;99616.49;;;13.55;62.41
62592;BME280;48659;41.622;2.276;2023-05-24T01:53:17;99614.67;;;14.75;59.09
62592;BME280;48659;41.622;2.276;2023-05-24T01:55:47;99612.91;;;15.17;59.01
62592;BME280;48659;41.622;2.276;2023-05-24T01:58:18;99615.46;;;13.38;63.52
62592;BME280;48659;41.622;2.276;2023-05-24T02:00:48;99627.69;;;12.68;66.83
62592;BME280;48659;41.622;2.276;2023-05-24T02:03:16;99625.80;;;13.81;62.81
62592;BME280;48659;41.622;2.276;2023-05-24T02:05:44;99619.68;;;13.67;64.81
62592;BME280;48659;41.622;2.276;2023-05-24T02:08:12;99621.79;;;13.40;64.25
62592;BME280;48659;41.622;2.276;2023-05-24T02:10:40;99624.40;;;12.68;66.42
62592;BME280;48659;41.622;2.276;2023-05-24T02:13:08;99623.24;;;12.82;66.80
62592;BME280;48659;41.622;2.276;2023-05-24T02:15:36;99615.92;;;14.02;65.31
62592;BME280;48659;41.622;2.276;2023-05-24T02:18:04;99615.23;;;12.64;66.65
62592;BME280;48659;41.622;2.276;2023-05-24T02:20:31;99620.54;;;12.39;68.24
62592;BME280;48659;41.622;2.276;2023-05-24T02:22:58;99621.58;;;12.68;67.47
62592;BME280;48659;41.622;2.276;2023-05-24T02:25:26;99621.72;;;12.78;68.75
62592;BME280;48659;41.622;2.276;2023-05-24T02:30:54;99613.64;;;14.64;60.98
62592;BME280;48659;41.622;2.276;2023-05-24T02:33:22;99608.62;;;16.07;56.90
62592;BME280;48659;41.622;2.276;2023-05-24T02:35:50;99617.49;;;14.50;59.84
62592;BME280;48659;41.622;2.276;2023-05-24T02:38:17;99615.36;;;16.09;55.61
62592;BME280;48659;41.622;2.276;2023-05-24T02:40:45;99616.08;;;16.03;55.68
62592;BME280;48659;41.622;2.276;2023-05-24T02:43:12;99613.70;;;16.57;53.81
62592;BME280;48659;41.622;2.276;2023-05-24T02:45:40;99611.59;;;16.71;53.89
62592;BME280;48659;41.622;2.276;2023-05-24T02:48:07;99605.61;;;16.53;53.91
62592;BME280;48659;41.622;2.276;2023-05-24T02:50:34;99605.64;;;17.18;52.34
62592;BME280;48659;41.622;2.276;2023-05-24T02:53:02;99606.74;;;16.32;52.86
62592;BME280;48659;41.622;2.276;2023-05-24T02:55:30;99602.20;;;17.19;51.54
62592;BME280;48659;41.622;2.276;2023-05-24T02:57:58;99604.28;;;16.85;52.59
62592;BME280;48659;41.622;2.276;2023-05-24T03:00:25;99599.58;;;16.74;53.22
62592;BME280;48659;41.622;2.276;2023-05-24T03:02:53;99594.19;;;17.75;50.93
62592;BME280;48659;41.622;2.276;2023-05-24T03:05:20;99589.37;;;17.56;50.97
62592;BME280;48659;41.622;2.276;2023-05-24T03:07:47;99592.73;;;17.90;50.78
62592;BME280;48659;41.622;2.276;2023-05-24T03:10:14;99593.80;;;17.09;51.29
62592;BME280;48659;41.622;2.276;2023-05-24T03:12:41;99595.98;;;17.66;51.44
62592;BME280;48659;41.622;2.276;2023-05-24T03:15:10;99597.57;;;17.42;51.62
62592;BME280;48659;41.622;2.276;2023-05-24T03:17:37;99599.79;;;14.79;57.78
62592;BME280;48659;41.622;2.276;2023-05-24T03:20:06;99599.78;;;16.56;54.09
62592;BME280;48659;41.622;2.276;2023-05-24T03:22:33;99595.52;;;16.99;52.91
62592;BME280;48659;41.622;2.276;2023-05-24T03:25:01;99593.17;;;16.78;53.68
62592;BME280;48659;41.622;2.276;2023-05-24T03:27:28;99592.83;;;17.05;52.88
62592;BME280;48659;41.622;2.276;2023-05-24T03:29:56;99589.72;;;17.12;52.55
62592;BME280;48659;41.622;2.276;2023-05-24T03:32:24;99590.63;;;16.99;51.98
62592;BME280;48659;41.622;2.276;2023-05-24T03:34:51;99594.28;;;17.62;51.38
62592;BME280;48659;41.622;2.276;2023-05-24T03:37:18;99594.73;;;17.57;51.06
62592;BME280;48659;41.622;2.276;2023-05-24T03:39:46;99596.83;;;17.03;52.24
62592;BME280;48659;41.622;2.276;2023-05-24T03:42:13;99599.52;;;16.56;52.71
62592;BME280;48659;41.622;2.276;2023-05-24T03:44:41;99599.79;;;17.52;51.46
62592;BME280;48659;41.622;2.276;2023-05-24T03:47:08;99602.92;;;17.31;52.13
62592;BME280;48659;41.622;2.276;2023-05-24T03:49:35;99603.09;;;17.27;51.73
62592;BME280;48659;41.622;2.276;2023-05-24T03:52:03;99595.91;;;17.33;50.86
62592;BME280;48659;41.622;2.276;2023-05-24T03:54:30;99591.40;;;17.66;51.53
62592;BME280;48659;41.622;2.276;2023-05-24T03:56:57;99583.25;;;17.97;50.42
62592;BME280;48659;41.622;2.276;2023-05-24T03:59:25;99587.67;;;18.51;49.88
62592;BME280;48659;41.622;2.276;2023-05-24T04:01:52;99586.43;;;17.75;50.57
62592;BME280;48659;41.622;2.276;2023-05-24T04:04:20;99585.74;;;17.86;50.30
62592;BME280;48659;41.622;2.276;2023-05-24T04:06:47;99593.54;;;17.51;52.03
62592;BME280;48659;41.622;2.276;2023-05-24T04:09:15;99594.93;;;16.96;51.86
62592;BME280;48659;41.622;2.276;2023-05-24T04:11:42;99597.36;;;16.05;54.22
62592;BME280;48659;41.622;2.276;2023-05-24T04:14:10;99596.60;;;16.98;51.63
62592;BME280;48659;41.622;2.276;2023-05-24T04:16:37;99592.13;;;18.47;49.86
62592;BME280;48659;41.622;2.276;2023-05-24T04:19:05;99591.26;;;18.20;50.88
62592;BME280;48659;41.622;2.276;2023-05-24T04:21:33;99594.57;;;17.92;49.89
62592;BME280;48659;41.622;2.276;2023-05-24T04:24:01;99593.07;;;17.72;51.05
62592;BME280;48659;41.622;2.276;2023-05-24T04:26:29;99596.52;;;17.91;49.90
62592;BME280;48659;41.622;2.276;2023-05-24T04:28:57;99597.99;;;17.90;50.08
62592;BME280;48659;41.622;2.276;2023-05-24T04:31:24;99605.72;;;17.63;51.43
62592;BME280;48659;41.622;2.276;2023-05-24T04:33:52;99605.97;;;17.36;51.80
62592;BME280;48659;41.622;2.276;2023-05-24T04:36:20;99604.76;;;17.47;50.70
62592;BME280;48659;41.622;2.276;2023-05-24T04:38:47;99603.65;;;17.60;51.48
62592;BME280;48659;41.622;2.276;2023-05-24T04:41:15;99601.34;;;17.42;51.28
62592;BME280;48659;41.622;2.276;2023-05-24T04:43:42;99594.13;;;18.05;50.98
62592;BME280;48659;41.622;2.276;2023-05-24T04:46:10;99591.49;;;17.95;50.66
62592;BME280;48659;41.622;2.276;2023-05-24T04:48:37;99598.30;;;17.43;51.04
62592;BME280;48659;41.622;2.276;2023-05-24T04:51:04;99593.52;;;17.48;50.84
62592;BME280;48659;41.622;2.276;2023-05-24T04:53:31;99600.03;;;17.54;51.45
62592;BME280;48659;41.622;2.276;2023-05-24T04:55:59;99597.70;;;17.35;51.91
62592;BME280;48659;41.622;2.276;2023-05-24T04:58:27;99597.73;;;17.38;51.19
62592;BME280;48659;41.622;2.276;2023-05-24T05:00:55;99595.66;;;17.68;50.74
62592;BME280;48659;41.622;2.276;2023-05-24T05:03:23;99594.42;;;18.07;50.84
62592;BME280;48659;41.622;2.276;2023-05-24T05:05:51;99593.16;;;18.08;50.44
62592;BME280;48659;41.622;2.276;2023-05-24T05:08:18;99596.37;;;17.90;50.32
62592;BME280;48659;41.622;2.276;2023-05-24T05:10:45;99597.40;;;18.47;49.40
62592;BME280;48659;41.622;2.276;2023-05-24T05:13:13;99598.59;;;18.37;48.95
62592;BME280;48659;41.622;2.276;2023-05-24T05:15:40;99600.16;;;18.83;48.62
62592;BME280;48659;41.622;2.276;2023-05-24T05:18:09;99600.13;;;18.47;48.16
62592;BME280;48659;41.622;2.276;2023-05-24T05:20:36;99598.13;;;19.26;48.04
62592;BME280;48659;41.622;2.276;2023-05-24T05:23:09;99589.59;;;18.90;46.90
62592;BME280;48659;41.622;2.276;2023-05-24T05:25:36;99586.02;;;19.52;45.99
62592;BME280;48659;41.622;2.276;2023-05-24T05:28:08;99588.18;;;19.82;44.17
62592;BME280;48659;41.622;2.276;2023-05-24T05:30:35;99585.57;;;20.04;45.23
62592;BME280;48659;41.622;2.276;2023-05-24T05:33:02;99582.30;;;19.91;44.73
62592;BME280;48659;41.622;2.276;2023-05-24T05:35:30;99591.62;;;20.49;43.37
62592;BME280;48659;41.622;2.276;2023-05-24T05:37:57;99592.41;;;20.51;43.63
62592;BME280;48659;41.622;2.276;2023-05-24T05:40:26;99592.52;;;20.50;44.15
62592;BME280;48659;41.622;2.276;2023-05-24T05:42:54;99590.29;;;19.98;44.84
62592;BME280;48659;41.622;2.276;2023-05-24T05:45:21;99592.07;;;20.83;43.76
62592;BME280;48659;41.622;2.276;2023-05-24T05:47:49;99592.46;;;20.82;43.49
62592;BME280;48659;41.622;2.276;2023-05-24T05:50:16;99589.50;;;20.80;43.83
62592;BME280;48659;41.622;2.276;2023-05-24T05:52:44;99592.06;;;21.79;41.85
62592;BME280;48659;41.622;2.276;2023-05-24T05:55:12;99596.51;;;21.19;41.56
62592;BME280;48659;41.622;2.276;2023-05-24T05:57:40;99594.42;;;21.19;43.07
62592;BME280;48659;41.622;2.276;2023-05-24T06:00:11;99595.95;;;21.12;42.60
62592;BME280;48659;41.622;2.276;2023-05-24T06:02:39;99594.40;;;21.42;41.67
62592;BME280;48659;41.622;2.276;2023-05-24T06:05:09;99595.13;;;21.92;40.80
62592;BME280;48659;41.622;2.276;2023-05-24T06:07:36;99595.19;;;21.37;41.70
62592;BME280;48659;41.622;2.276;2023-05-24T06:10:05;99591.15;;;22.10;40.85
62592;BME280;48659;41.622;2.276;2023-05-24T06:12:33;99591.00;;;22.19;40.82
62592;BME280;48659;41.622;2.276;2023-05-24T06:15:00;99586.20;;;22.31;40.44
62592;BME280;48659;41.622;2.276;2023-05-24T06:17:27;99591.08;;;21.60;40.55
62592;BME280;48659;41.622;2.276;2023-05-24T06:19:55;99588.30;;;22.43;39.53
62592;BME280;48659;41.622;2.276;2023-05-24T06:22:22;99586.93;;;22.21;40.24
62592;BME280;48659;41.622;2.276;2023-05-24T06:24:50;99582.99;;;22.50;40.34
62592;BME280;48659;41.622;2.276;2023-05-24T06:27:17;99588.75;;;22.65;39.50
62592;BME280;48659;41.622;2.276;2023-05-24T06:29:45;99593.95;;;21.61;40.79
62592;BME280;48659;41.622;2.276;2023-05-24T06:32:12;99588.95;;;19.41;45.19
62592;BME280;48659;41.622;2.276;2023-05-24T06:34:39;99586.96;;;20.52;44.16
62592;BME280;48659;41.622;2.276;2023-05-24T06:37:06;99582.78;;;21.79;41.41
62592;BME280;48659;41.622;2.276;2023-05-24T06:39:34;99579.30;;;21.74;40.86
62592;BME280;48659;41.622;2.276;2023-05-24T06:42:01;99577.73;;;22.22;40.58
62592;BME280;48659;41.622;2.276;2023-05-24T06:44:29;99580.10;;;22.13;41.22
62592;BME280;48659;41.622;2.276;2023-05-24T06:46:56;99580.82;;;22.66;39.03
62592;BME280;48659;41.622;2.276;2023-05-24T06:49:24;99579.00;;;22.54;39.26
62592;BME280;48659;41.622;2.276;2023-05-24T06:51:52;99584.50;;;21.37;41.82
62592;BME280;48659;41.622;2.276;2023-05-24T06:54:19;99580.31;;;21.52;41.33
62592;BME280;48659;41.622;2.276;2023-05-24T06:56:46;99575.87;;;23.25;38.33
62592;BME280;48659;41.622;2.276;2023-05-24T06:59:13;99578.15;;;22.91;38.16
62592;BME280;48659;41.622;2.276;2023-05-24T07:01:41;99577.33;;;23.21;37.78
62592;BME280;48659;41.622;2.276;2023-05-24T07:04:08;99579.19;;;22.09;39.11
62592;BME280;48659;41.622;2.276;2023-05-24T07:06:35;99575.55;;;23.87;36.93
62592;BME280;48659;41.622;2.276;2023-05-24T07:09:03;99577.71;;;22.95;37.76
62592;BME280;48659;41.622;2.276;2023-05-24T07:11:31;99573.49;;;23.71;36.94
62592;BME280;48659;41.622;2.276;2023-05-24T07:13:58;99577.10;;;23.32;37.88
62592;BME280;48659;41.622;2.276;2023-05-24T07:16:26;99583.05;;;21.14;41.47
62592;BME280;48659;41.622;2.276;2023-05-24T07:18:54;99576.25;;;22.00;40.35
62592;BME280;48659;41.622;2.276;2023-05-24T07:21:21;99578.75;;;22.33;40.35
62592;BME280;48659;41.622;2.276;2023-05-24T07:23:50;99578.05;;;22.75;40.42
62592;BME280;48659;41.622;2.276;2023-05-24T07:26:18;99580.91;;;22.69;40.28
62592;BME280;48659;41.622;2.276;2023-05-24T07:28:46;99581.28;;;21.45;41.08
62592;BME280;48659;41.622;2.276;2023-05-24T07:31:14;99581.31;;;22.27;41.45
62592;BME280;48659;41.622;2.276;2023-05-24T07:33:41;99582.67;;;23.86;38.66
62592;BME280;48659;41.622;2.276;2023-05-24T07:36:09;99581.31;;;23.50;37.96
62592;BME280;48659;41.622;2.276;2023-05-24T07:38:36;99586.96;;;21.90;40.54
62592;BME280;48659;41.622;2.276;2023-05-24T07:41:06;99589.49;;;21.74;41.06
62592;BME280;48659;41.622;2.276;2023-05-24T07:43:33;99595.05;;;20.85;44.68
62592;BME280;48659;41.622;2.276;2023-05-24T07:46:08;99585.08;;;21.94;42.11
62592;BME280;48659;41.622;2.276;2023-05-24T07:48:36;99590.02;;;20.94;43.00
62592;BME280;48659;41.622;2.276;2023-05-24T07:51:04;99591.32;;;21.20;42.94
62592;BME280;48659;41.622;2.276;2023-05-24T07:53:31;99591.97;;;21.69;42.31
62592;BME280;48659;41.622;2.276;2023-05-24T07:56:13;99590.34;;;22.19;41.84
62592;BME280;48659;41.622;2.276;2023-05-24T07:58:41;99589.37;;;21.87;42.23
62592;BME280;48659;41.622;2.276;2023-05-24T08:01:09;99591.21;;;22.19;41.63
62592;BME280;48659;41.622;2.276;2023-05-24T08:03:36;99596.04;;;21.57;42.16
62592;BME280;48659;41.622;2.276;2023-05-24T08:06:05;99589.37;;;22.87;40.87
62592;BME280;48659;41.622;2.276;2023-05-24T08:08:33;99593.35;;;23.80;38.81
62592;BME280;48659;41.622;2.276;2023-05-24T08:11:01;99590.31;;;23.77;38.76
62592;BME280;48659;41.622;2.276;2023-05-24T08:13:28;99596.91;;;23.35;39.55
62592;BME280;48659;41.622;2.276;2023-05-24T08:15:55;99594.27;;;23.28;39.06
62592;BME280;48659;41.622;2.276;2023-05-24T08:18:23;99593.31;;;22.64;39.76
62592;BME280;48659;41.622;2.276;2023-05-24T08:20:50;99592.28;;;24.23;37.36
62592;BME280;48659;41.622;2.276;2023-05-24T08:23:18;99589.25;;;23.48;37.50
62592;BME280;48659;41.622;2.276;2023-05-24T08:25:45;99596.30;;;21.59;41.67
62592;BME280;48659;41.622;2.276;2023-05-24T08:28:13;99592.66;;;20.96;43.25
62592;BME280;48659;41.622;2.276;2023-05-24T08:30:41;99584.82;;;23.10;39.71
62592;BME280;48659;41.622;2.276;2023-05-24T08:33:08;99587.51;;;21.17;41.26
62592;BME280;48659;41.622;2.276;2023-05-24T08:35:35;99581.73;;;21.46;40.82
62592;BME280;48659;41.622;2.276;2023-05-24T08:38:02;99584.94;;;21.05;42.16
62592;BME280;48659;41.622;2.276;2023-05-24T08:40:29;99577.16;;;22.38;39.79
62592;BME280;48659;41.622;2.276;2023-05-24T08:43:00;99576.10;;;22.84;38.60
62592;BME280;48659;41.622;2.276;2023-05-24T08:45:29;99572.74;;;22.66;38.84
62592;BME280;48659;41.622;2.276;2023-05-24T08:47:59;99569.31;;;24.41;36.50
62592;BME280;48659;41.622;2.276;2023-05-24T08:50:27;99578.90;;;20.74;41.23
62592;BME280;48659;41.622;2.276;2023-05-24T08:52:57;99573.15;;;20.05;42.83
62592;BME280;48659;41.622;2.276;2023-05-24T08:55:26;99575.49;;;20.97;41.62
62592;BME280;48659;41.622;2.276;2023-05-24T08:57:54;99571.68;;;21.75;40.13
62592;BME280;48659;41.622;2.276;2023-05-24T09:00:22;99572.37;;;20.68;41.72
62592;BME280;48659;41.622;2.276;2023-05-24T09:02:50;99563.61;;;21.62;39.88
62592;BME280;48659;41.622;2.276;2023-05-24T09:05:18;99563.37;;;23.61;37.26
62592;BME280;48659;41.622;2.276;2023-05-24T09:07:47;99559.55;;;22.52;38.81
62592;BME280;48659;41.622;2.276;2023-05-24T09:10:15;99556.59;;;23.63;36.76
62592;BME280;48659;41.622;2.276;2023-05-24T09:12:49;99551.72;;;23.86;36.12
62592;BME280;48659;41.622;2.276;2023-05-24T09:15:18;99550.06;;;23.90;36.01
62592;BME280;48659;41.622;2.276;2023-05-24T09:17:45;99549.77;;;24.53;35.47
62592;BME280;48659;41.622;2.276;2023-05-24T09:20:14;99545.58;;;25.05;33.61
62592;BME280;48659;41.622;2.276;2023-05-24T09:22:42;99544.33;;;23.14;36.30
62592;BME280;48659;41.622;2.276;2023-05-24T09:25:12;99546.46;;;23.29;38.01
62592;BME280;48659;41.622;2.276;2023-05-24T09:27:40;99540.97;;;23.77;36.42
62592;BME280;48659;41.622;2.276;2023-05-24T09:30:12;99539.02;;;21.28;40.68
62592;BME280;48659;41.622;2.276;2023-05-24T09:32:41;99538.66;;;22.50;39.93
62592;BME280;48659;41.622;2.276;2023-05-24T09:35:19;99540.14;;;22.46;39.35
62592;BME280;48659;41.622;2.276;2023-05-24T09:37:47;99541.65;;;22.27;40.07
62592;BME280;48659;41.622;2.276;2023-05-24T09:40:17;99542.38;;;22.98;38.57
62592;BME280;48659;41.622;2.276;2023-05-24T09:42:45;99538.16;;;23.39;37.06
62592;BME280;48659;41.622;2.276;2023-05-24T09:45:14;99539.75;;;22.10;39.81
62592;BME280;48659;41.622;2.276;2023-05-24T09:47:42;99536.38;;;23.36;37.17
62592;BME280;48659;41.622;2.276;2023-05-24T09:50:12;99530.12;;;24.19;36.32
62592;BME280;48659;41.622;2.276;2023-05-24T09:52:41;99530.62;;;23.80;36.78
62592;BME280;48659;41.622;2.276;2023-05-24T09:55:12;99532.51;;;25.53;33.56
62592;BME280;48659;41.622;2.276;2023-05-24T09:57:42;99532.45;;;23.76;35.78
62592;BME280;48659;41.622;2.276;2023-05-24T10:00:10;99533.11;;;25.15;33.92
62592;BME280;48659;41.622;2.276;2023-05-24T10:02:39;99528.45;;;26.15;33.22
62592;BME280;48659;41.622;2.276;2023-05-24T10:05:09;99532.08;;;23.54;36.85
62592;BME280;48659;41.622;2.276;2023-05-24T10:07:36;99536.04;;;25.18;34.61
62592;BME280;48659;41.622;2.276;2023-05-24T10:10:17;99535.12;;;25.51;34.61
62592;BME280;48659;41.622;2.276;2023-05-24T10:12:45;99532.41;;;23.56;36.49
62592;BME280;48659;41.622;2.276;2023-05-24T10:15:13;99538.43;;;25.31;34.26
62592;BME280;48659;41.622;2.276;2023-05-24T10:17:42;99537.06;;;23.61;36.54
62592;BME280;48659;41.622;2.276;2023-05-24T10:20:10;99532.52;;;24.81;34.77
62592;BME280;48659;41.622;2.276;2023-05-24T10:22:42;99534.13;;;24.81;34.84
62592;BME280;48659;41.622;2.276;2023-05-24T10:25:10;99532.65;;;24.78;34.62
62592;BME280;48659;41.622;2.276;2023-05-24T10:27:40;99531.71;;;23.16;36.86
62592;BME280;48659;41.622;2.276;2023-05-24T10:30:15;99531.49;;;23.98;36.00
62592;BME280;48659;41.622;2.276;2023-05-24T10:32:44;99533.35;;;23.28;37.17
62592;BME280;48659;41.622;2.276;2023-05-24T10:35:14;99530.92;;;24.92;34.75
62592;BME280;48659;41.622;2.276;2023-05-24T10:37:42;99527.16;;;25.51;33.73
62592;BME280;48659;41.622;2.276;2023-05-24T10:40:17;99525.44;;;25.18;33.53
62592;BME280;48659;41.622;2.276;2023-05-24T10:42:45;99520.66;;;26.88;31.62
62592;BME280;48659;41.622;2.276;2023-05-24T10:45:29;99521.16;;;26.62;31.34
62592;BME280;48659;41.622;2.276;2023-05-24T10:48:00;99522.53;;;26.60;31.36
62592;BME280;48659;41.622;2.276;2023-05-24T10:50:27;99524.67;;;26.02;32.30
62592;BME280;48659;41.622;2.276;2023-05-24T10:53:10;99530.29;;;24.56;34.52
62592;BME280;48659;41.622;2.276;2023-05-24T10:55:52;99535.13;;;23.57;36.33
62592;BME280;48659;41.622;2.276;2023-05-24T10:58:21;99529.83;;;23.61;36.73
62592;BME280;48659;41.622;2.276;2023-05-24T11:00:50;99528.90;;;24.94;34.87
62592;BME280;48659;41.622;2.276;2023-05-24T11:03:18;99528.74;;;23.46;36.63
62592;BME280;48659;41.622;2.276;2023-05-24T11:05:51;99525.19;;;23.78;36.67
62592;BME280;48659;41.622;2.276;2023-05-24T11:08:30;99527.96;;;23.43;37.63
62592;BME280;48659;41.622;2.276;2023-05-24T11:11:14;99526.08;;;23.70;36.61
62592;BME280;48659;41.622;2.276;2023-05-24T11:13:42;99531.25;;;23.93;36.16
62592;BME280;48659;41.622;2.276;2023-05-24T11:16:32;99530.00;;;23.04;37.50
62592;BME280;48659;41.622;2.276;2023-05-24T11:19:11;99530.02;;;24.11;36.01
62592;BME280;48659;41.622;2.276;2023-05-24T11:21:38;99525.87;;;24.47;35.32
62592;BME280;48659;41.622;2.276;2023-05-24T11:24:07;99524.02;;;23.96;35.76
62592;BME280;48659;41.622;2.276;2023-05-24T11:26:35;99530.76;;;24.20;36.00
62592;BME280;48659;41.622;2.276;2023-05-24T11:29:03;99540.33;;;25.64;33.34
62592;BME280;48659;41.622;2.276;2023-05-24T11:31:31;99536.71;;;23.65;36.26
62592;BME280;48659;41.622;2.276;2023-05-24T11:34:09;99536.23;;;24.52;35.09
62592;BME280;48659;41.622;2.276;2023-05-24T11:36:37;99536.25;;;24.07;35.67
62592;BME280;48659;41.622;2.276;2023-05-24T11:39:06;99538.62;;;24.62;35.01
62592;BME280;48659;41.622;2.276;2023-05-24T11:41:35;99545.57;;;24.93;34.71
62592;BME280;48659;41.622;2.276;2023-05-24T11:44:03;99549.73;;;24.77;35.16
62592;BME280;48659;41.622;2.276;2023-05-24T11:46:31;99546.44;;;24.34;35.39
62592;BME280;48659;41.622;2.276;2023-05-24T11:49:11;99542.06;;;24.03;35.68
62592;BME280;48659;41.622;2.276;2023-05-24T11:51:39;99546.82;;;24.91;34.71
62592;BME280;48659;41.622;2.276;2023-05-24T11:54:10;99555.13;;;22.56;38.44
62592;BME280;48659;41.622;2.276;2023-05-24T11:56:37;99561.44;;;24.64;35.62
62592;BME280;48659;41.622;2.276;2023-05-24T11:59:13;99564.60;;;22.50;38.26
62592;BME280;48659;41.622;2.276;2023-05-24T12:01:42;99554.80;;;23.81;37.07
62592;BME280;48659;41.622;2.276;2023-05-24T12:04:10;99544.03;;;23.10;38.10
62592;BME280;48659;41.622;2.276;2023-05-24T12:06:39;99536.19;;;25.35;34.88
62592;BME280;48659;41.622;2.276;2023-05-24T12:09:09;99533.44;;;24.52;34.56
62592;BME280;48659;41.622;2.276;2023-05-24T12:11:38;99534.10;;;25.83;33.56
62592;BME280;48659;41.622;2.276;2023-05-24T12:14:05;99540.01;;;25.86;33.42
62592;BME280;48659;41.622;2.276;2023-05-24T12:16:35;99545.04;;;25.02;34.69
62592;BME280;48659;41.622;2.276;2023-05-24T12:19:15;99548.28;;;23.46;36.83
62592;BME280;48659;41.622;2.276;2023-05-24T12:21:42;99547.41;;;22.63;40.11
62592;BME280;48659;41.622;2.276;2023-05-24T12:24:10;99542.57;;;20.74;45.54
62592;BME280;48659;41.622;2.276;2023-05-24T12:26:41;99534.13;;;20.29;49.21
62592;BME280;48659;41.622;2.276;2023-05-24T12:29:09;99534.68;;;20.17;50.51
62592;BME280;48659;41.622;2.276;2023-05-24T12:31:39;99538.37;;;19.68;52.16
62592;BME280;48659;41.622;2.276;2023-05-24T12:34:09;99542.18;;;20.17;50.79
62592;BME280;48659;41.622;2.276;2023-05-24T12:36:37;99545.40;;;18.79;53.66
62592;BME280;48659;41.622;2.276;2023-05-24T12:39:17;99533.80;;;20.11;51.03
62592;BME280;48659;41.622;2.276;2023-05-24T12:41:48;99524.12;;;19.80;52.83
62592;BME280;48659;41.622;2.276;2023-05-24T12:44:16;99518.51;;;20.44;50.28
62592;BME280;48659;41.622;2.276;2023-05-24T12:46:44;99518.62;;;18.91;54.50
62592;BME280;48659;41.622;2.276;2023-05-24T12:49:11;99535.29;;;17.63;61.38
62592;BME280;48659;41.622;2.276;2023-05-24T12:51:38;99541.51;;;17.94;63.06
62592;BME280;48659;41.622;2.276;2023-05-24T12:54:06;99544.47;;;17.98;64.54
62592;BME280;48659;41.622;2.276;2023-05-24T12:56:33;99536.63;;;17.77;66.24
62592;BME280;48659;41.622;2.276;2023-05-24T12:59:09;99534.38;;;18.37;64.26
62592;BME280;48659;41.622;2.276;2023-05-24T13:01:36;99549.15;;;18.45;63.44
62592;BME280;48659;41.622;2.276;2023-05-24T13:04:03;99563.98;;;17.61;67.89
62592;BME280;48659;41.622;2.276;2023-05-24T13:06:31;99563.81;;;17.29;68.71
62592;BME280;48659;41.622;2.276;2023-05-24T13:08:59;99560.78;;;17.45;70.89
62592;BME280;48659;41.622;2.276;2023-05-24T13:11:27;99564.48;;;16.89;75.07
62592;BME280;48659;41.622;2.276;2023-05-24T13:13:54;99566.00;;;17.69;71.12